CheckWX is a tool to help pilots better visualize weather data.  It is not intended as a substitute for an official pre-flight weather briefing.

12:48:22 UTC

ETMN TAF
Nordholz Naval Airbase Airport
Cuxhaven, Germany
TAF AMD ETMN 161212Z 1611/1620 23008KT 9999 NSW FEW030 BKN220 BECMG 1612/1614 31010KT 9999 NSW SCT025 BKN050 PROB30 1613/1618 33012G22KT 7000 SHRA BKN025CB CANCEL 1300

Jun-16@
11:00 UTC

Jun-16 @ 11:00 UTC

Jun-16@
12:00 UTC

Jun-16 @ 12:00 UTC

TAF AMD ETMN 161212Z 1611/1620 23008KT 9999 NSW FEW030 BKN220

Expired

Wind
  • 230° at 8 KTS
Conditions
No significant weather
Cloud Levels
  • Few at 3,000' AGL
  • Broken at 22,000' AGL

Jun-16@
12:00 UTC

Jun-16 @ 12:00 UTC

Jun-16@
20:00 UTC

Jun-16 @ 20:00 UTC

BECMG 1612/1614 31010KT 9999 NSW SCT025 BKN050

Becoming

Becoming Conditions expected by Sun, Jun 16, 2019 @ 14:00 UTC

Wind
  • 310° at 10 KTS
Conditions
No significant weather
Cloud Levels
  • Scattered at 2,500' AGL
  • Broken at 5,000' AGL

Jun-16@
13:00 UTC

Jun-16 @ 13:00 UTC

Jun-16@
18:00 UTC

Jun-16 @ 18:00 UTC

PROB30 1613/1618 33012G22KT 7000 SHRA BKN025CB CANCEL 1300

Probable - 30% Likelihood

Probable - 30% Likelihood during this time.

Wind
  • 330° at 12 KTS
  • {Gusting to 22 KTS
Conditions
Rain
Cloud Levels
  • Broken at 2,500' AGL